sensor_id;sensor_type;location;lat;lon;timestamp;temperature;humidity
42339;DHT22;27993;45.392;10.918;2023-04-01T00:02:23;11.70;99.90
42339;DHT22;27993;45.392;10.918;2023-04-01T00:04:54;11.80;99.90
42339;DHT22;27993;45.392;10.918;2023-04-01T00:07:25;11.70;99.90
42339;DHT22;27993;45.392;10.918;2023-04-01T00:09:55;11.60;99.90
42339;DHT22;27993;45.392;10.918;2023-04-01T00:12:26;11.50;99.90
42339;DHT22;27993;45.392;10.918;2023-04-01T00:14:57;11.50;99.90
42339;DHT22;27993;45.392;10.918;2023-04-01T00:17:28;11.50;99.90
42339;DHT22;27993;45.392;10.918;2023-04-01T00:19:59;11.60;99.90
42339;DHT22;27993;45.392;10.918;2023-04-01T00:22:29;11.50;99.90
42339;DHT22;27993;45.392;10.918;2023-04-01T00:25:00;11.50;99.90
42339;DHT22;27993;45.392;10.918;2023-04-01T00:27:31;11.50;99.90
42339;DHT22;27993;45.392;10.918;2023-04-01T00:30:01;11.60;99.90
42339;DHT22;27993;45.392;10.918;2023-04-01T00:32:33;11.60;99.90
42339;DHT22;27993;45.392;10.918;2023-04-01T00:35:04;11.60;99.90
42339;DHT22;27993;45.392;10.918;2023-04-01T00:37:36;11.60;99.90
42339;DHT22;27993;45.392;10.918;2023-04-01T00:40:08;11.60;99.90
42339;DHT22;27993;45.392;10.918;2023-04-01T00:42:51;11.60;99.90
42339;DHT22;27993;45.392;10.918;2023-04-01T00:45:26;11.50;99.90
42339;DHT22;27993;45.392;10.918;2023-04-01T00:48:01;11.50;99.90
42339;DHT22;27993;45.392;10.918;2023-04-01T00:50:35;11.50;99.90
42339;DHT22;27993;45.392;10.918;2023-04-01T00:53:08;11.50;99.90
42339;DHT22;27993;45.392;10.918;2023-04-01T00:55:43;11.40;99.90
42339;DHT22;27993;45.392;10.918;2023-04-01T00:58:17;11.20;99.90
42339;DHT22;27993;45.392;10.918;2023-04-01T01:00:49;11.10;99.90
42339;DHT22;27993;45.392;10.918;2023-04-01T01:03:21;11.10;99.90
42339;DHT22;27993;45.392;10.918;2023-04-01T01:11:42;10.90;99.90
42339;DHT22;27993;45.392;10.918;2023-04-01T01:17:12;10.40;99.90
42339;DHT22;27993;45.392;10.918;2023-04-01T01:23:12;10.50;99.90
42339;DHT22;27993;45.392;10.918;2023-04-01T01:32:17;10.40;99.90
42339;DHT22;27993;45.392;10.918;2023-04-01T01:37:43;10.30;99.90
42339;DHT22;27993;45.392;10.918;2023-04-01T01:40:16;10.20;99.90
42339;DHT22;27993;45.392;10.918;2023-04-01T01:42:50;10.30;99.90
42339;DHT22;27993;45.392;10.918;2023-04-01T01:45:24;10.40;99.90
42339;DHT22;27993;45.392;10.918;2023-04-01T01:47:56;10.30;99.90
42339;DHT22;27993;45.392;10.918;2023-04-01T01:50:28;10.30;99.90
42339;DHT22;27993;45.392;10.918;2023-04-01T01:53:17;10.20;99.90
42339;DHT22;27993;45.392;10.918;2023-04-01T01:55:47;9.70;99.90
42339;DHT22;27993;45.392;10.918;2023-04-01T01:58:37;9.00;99.90
42339;DHT22;27993;45.392;10.918;2023-04-01T02:01:21;9.20;99.90
42339;DHT22;27993;45.392;10.918;2023-04-01T02:03:54;9.40;99.90
42339;DHT22;27993;45.392;10.918;2023-04-01T02:06:28;9.30;99.90
42339;DHT22;27993;45.392;10.918;2023-04-01T02:09:03;9.30;99.90
42339;DHT22;27993;45.392;10.918;2023-04-01T02:11:46;9.30;99.90
42339;DHT22;27993;45.392;10.918;2023-04-01T02:14:31;9.40;99.90
42339;DHT22;27993;45.392;10.918;2023-04-01T02:17:12;9.20;99.90
42339;DHT22;27993;45.392;10.918;2023-04-01T02:19:52;9.20;99.90
42339;DHT22;27993;45.392;10.918;2023-04-01T02:22:27;9.20;99.90
42339;DHT22;27993;45.392;10.918;2023-04-01T02:25:03;9.10;99.90
42339;DHT22;27993;45.392;10.918;2023-04-01T02:27:35;9.30;99.90
42339;DHT22;27993;45.392;10.918;2023-04-01T02:30:07;9.40;99.90
42339;DHT22;27993;45.392;10.918;2023-04-01T02:32:38;9.40;99.90
42339;DHT22;27993;45.392;10.918;2023-04-01T02:35:11;9.40;99.90
42339;DHT22;27993;45.392;10.918;2023-04-01T02:37:46;9.30;99.90
42339;DHT22;27993;45.392;10.918;2023-04-01T02:40:19;9.30;99.90
42339;DHT22;27993;45.392;10.918;2023-04-01T02:42:49;9.30;99.90
42339;DHT22;27993;45.392;10.918;2023-04-01T02:45:21;9.40;99.90
42339;DHT22;27993;45.392;10.918;2023-04-01T02:47:51;9.40;99.90
42339;DHT22;27993;45.392;10.918;2023-04-01T02:50:22;9.50;99.90
42339;DHT22;27993;45.392;10.918;2023-04-01T02:52:53;9.40;99.90
42339;DHT22;27993;45.392;10.918;2023-04-01T02:55:23;9.30;99.90
42339;DHT22;27993;45.392;10.918;2023-04-01T02:57:54;9.40;99.90
42339;DHT22;27993;45.392;10.918;2023-04-01T03:00:25;9.60;99.90
42339;DHT22;27993;45.392;10.918;2023-04-01T03:02:56;9.50;99.90
42339;DHT22;27993;45.392;10.918;2023-04-01T03:05:26;9.50;99.90
42339;DHT22;27993;45.392;10.918;2023-04-01T03:07:57;9.30;99.90
42339;DHT22;27993;45.392;10.918;2023-04-01T03:10:28;8.90;99.90
42339;DHT22;27993;45.392;10.918;2023-04-01T03:12:58;9.00;99.90
42339;DHT22;27993;45.392;10.918;2023-04-01T03:15:29;9.10;99.90
42339;DHT22;27993;45.392;10.918;2023-04-01T03:18:00;9.10;99.90
42339;DHT22;27993;45.392;10.918;2023-04-01T03:20:30;9.10;99.90
42339;DHT22;27993;45.392;10.918;2023-04-01T03:23:01;9.20;99.90
42339;DHT22;27993;45.392;10.918;2023-04-01T03:25:31;9.10;99.90
42339;DHT22;27993;45.392;10.918;2023-04-01T03:28:03;9.20;99.90
42339;DHT22;27993;45.392;10.918;2023-04-01T03:30:33;8.90;99.90
42339;DHT22;27993;45.392;10.918;2023-04-01T03:33:04;9.00;99.90
42339;DHT22;27993;45.392;10.918;2023-04-01T03:35:35;9.20;99.90
42339;DHT22;27993;45.392;10.918;2023-04-01T03:38:06;9.30;99.90
42339;DHT22;27993;45.392;10.918;2023-04-01T03:40:36;9.20;99.90
42339;DHT22;27993;45.392;10.918;2023-04-01T03:43:08;8.90;99.90
42339;DHT22;27993;45.392;10.918;2023-04-01T03:45:44;9.00;99.90
42339;DHT22;27993;45.392;10.918;2023-04-01T03:48:15;9.10;99.90
42339;DHT22;27993;45.392;10.918;2023-04-01T03:50:46;9.20;99.90
42339;DHT22;27993;45.392;10.918;2023-04-01T03:53:17;9.30;99.90
42339;DHT22;27993;45.392;10.918;2023-04-01T03:55:48;9.30;99.90
42339;DHT22;27993;45.392;10.918;2023-04-01T03:58:19;9.30;99.90
42339;DHT22;27993;45.392;10.918;2023-04-01T04:00:49;9.50;99.90
42339;DHT22;27993;45.392;10.918;2023-04-01T04:03:20;9.50;99.90
42339;DHT22;27993;45.392;10.918;2023-04-01T04:05:51;9.40;99.90
42339;DHT22;27993;45.392;10.918;2023-04-01T04:08:21;9.20;99.90
42339;DHT22;27993;45.392;10.918;2023-04-01T04:10:55;9.30;99.90
42339;DHT22;27993;45.392;10.918;2023-04-01T04:13:26;9.20;99.90
42339;DHT22;27993;45.392;10.918;2023-04-01T04:15:57;8.80;99.90
42339;DHT22;27993;45.392;10.918;2023-04-01T04:18:28;9.00;99.90
42339;DHT22;27993;45.392;10.918;2023-04-01T04:20:59;9.00;99.90
42339;DHT22;27993;45.392;10.918;2023-04-01T04:23:29;9.10;99.90
42339;DHT22;27993;45.392;10.918;2023-04-01T04:26:06;8.90;99.90
42339;DHT22;27993;45.392;10.918;2023-04-01T04:28:37;9.00;99.90
42339;DHT22;27993;45.392;10.918;2023-04-01T04:31:08;9.10;99.90
42339;DHT22;27993;45.392;10.918;2023-04-01T04:33:39;9.20;99.90
42339;DHT22;27993;45.392;10.918;2023-04-01T04:36:09;9.10;99.90
42339;DHT22;27993;45.392;10.918;2023-04-01T04:38:40;8.50;99.90
42339;DHT22;27993;45.392;10.918;2023-04-01T04:41:14;8.30;99.90
42339;DHT22;27993;45.392;10.918;2023-04-01T04:43:53;8.30;99.90
42339;DHT22;27993;45.392;10.918;2023-04-01T04:46:25;8.30;99.90
42339;DHT22;27993;45.392;10.918;2023-04-01T04:48:55;8.30;99.90
42339;DHT22;27993;45.392;10.918;2023-04-01T04:51:26;8.20;99.90
42339;DHT22;27993;45.392;10.918;2023-04-01T04:53:57;8.50;99.90
42339;DHT22;27993;45.392;10.918;2023-04-01T04:56:27;8.70;99.90
42339;DHT22;27993;45.392;10.918;2023-04-01T04:58:58;8.60;99.90
42339;DHT22;27993;45.392;10.918;2023-04-01T05:01:29;8.50;99.90
42339;DHT22;27993;45.392;10.918;2023-04-01T05:04:00;8.50;99.90
42339;DHT22;27993;45.392;10.918;2023-04-01T05:06:30;8.30;99.90
42339;DHT22;27993;45.392;10.918;2023-04-01T05:09:02;8.20;99.90
42339;DHT22;27993;45.392;10.918;2023-04-01T05:11:32;8.30;99.90
42339;DHT22;27993;45.392;10.918;2023-04-01T05:14:03;8.40;99.90
42339;DHT22;27993;45.392;10.918;2023-04-01T05:16:33;8.30;99.90
42339;DHT22;27993;45.392;10.918;2023-04-01T05:19:04;8.40;99.90
42339;DHT22;27993;45.392;10.918;2023-04-01T05:21:35;8.50;99.90
42339;DHT22;27993;45.392;10.918;2023-04-01T05:24:08;8.50;99.90
42339;DHT22;27993;45.392;10.918;2023-04-01T05:26:39;8.60;99.90
42339;DHT22;27993;45.392;10.918;2023-04-01T05:29:10;8.60;99.90
42339;DHT22;27993;45.392;10.918;2023-04-01T05:31:40;8.60;99.90
42339;DHT22;27993;45.392;10.918;2023-04-01T05:34:11;8.80;99.90
42339;DHT22;27993;45.392;10.918;2023-04-01T05:36:42;9.20;99.90
42339;DHT22;27993;45.392;10.918;2023-04-01T05:39:13;9.50;99.90
42339;DHT22;27993;45.392;10.918;2023-04-01T05:41:43;9.70;99.90
42339;DHT22;27993;45.392;10.918;2023-04-01T05:44:15;9.70;99.90
42339;DHT22;27993;45.392;10.918;2023-04-01T05:46:45;10.00;99.90
42339;DHT22;27993;45.392;10.918;2023-04-01T05:49:16;10.30;99.90
42339;DHT22;27993;45.392;10.918;2023-04-01T05:51:47;10.70;99.90
42339;DHT22;27993;45.392;10.918;2023-04-01T05:54:19;11.10;99.90
42339;DHT22;27993;45.392;10.918;2023-04-01T05:56:50;11.10;99.90
42339;DHT22;27993;45.392;10.918;2023-04-01T05:59:20;9.70;99.90
42339;DHT22;27993;45.392;10.918;2023-04-01T06:01:51;9.80;99.90
42339;DHT22;27993;45.392;10.918;2023-04-01T06:04:22;10.20;99.90
42339;DHT22;27993;45.392;10.918;2023-04-01T06:06:52;10.30;99.90
42339;DHT22;27993;45.392;10.918;2023-04-01T06:09:27;10.60;99.90
42339;DHT22;27993;45.392;10.918;2023-04-01T06:12:29;10.60;99.90
42339;DHT22;27993;45.392;10.918;2023-04-01T06:15:18;11.20;99.90
42339;DHT22;27993;45.392;10.918;2023-04-01T06:20:49;12.10;99.90
42339;DHT22;27993;45.392;10.918;2023-04-01T06:26:37;10.40;99.90
42339;DHT22;27993;45.392;10.918;2023-04-01T06:29:25;11.20;99.90
42339;DHT22;27993;45.392;10.918;2023-04-01T06:37:33;12.60;99.90
42339;DHT22;27993;45.392;10.918;2023-04-01T06:45:48;14.20;99.90
42339;DHT22;27993;45.392;10.918;2023-04-01T06:48:40;14.60;99.90
42339;DHT22;27993;45.392;10.918;2023-04-01T06:51:21;15.20;99.90
42339;DHT22;27993;45.392;10.918;2023-04-01T06:54:09;15.50;99.90
42339;DHT22;27993;45.392;10.918;2023-04-01T06:56:42;15.70;99.90
42339;DHT22;27993;45.392;10.918;2023-04-01T06:59:22;16.30;99.90
42339;DHT22;27993;45.392;10.918;2023-04-01T07:02:21;15.90;99.90
42339;DHT22;27993;45.392;10.918;2023-04-01T07:04:50;16.00;99.90
42339;DHT22;27993;45.392;10.918;2023-04-01T07:10:09;16.10;99.90
42339;DHT22;27993;45.392;10.918;2023-04-01T07:12:54;16.30;99.90
42339;DHT22;27993;45.392;10.918;2023-04-01T07:15:36;16.00;99.90
42339;DHT22;27993;45.392;10.918;2023-04-01T07:18:18;15.70;99.90
42339;DHT22;27993;45.392;10.918;2023-04-01T07:20:50;16.20;99.90
42339;DHT22;27993;45.392;10.918;2023-04-01T07:23:36;16.90;99.90
42339;DHT22;27993;45.392;10.918;2023-04-01T07:26:29;17.60;99.90
42339;DHT22;27993;45.392;10.918;2023-04-01T07:28:59;17.30;99.90
42339;DHT22;27993;45.392;10.918;2023-04-01T07:37:15;17.50;99.90
42339;DHT22;27993;45.392;10.918;2023-04-01T07:40:14;17.50;99.90
42339;DHT22;27993;45.392;10.918;2023-04-01T07:43:22;18.30;99.90
42339;DHT22;27993;45.392;10.918;2023-04-01T07:54:32;18.80;99.90
42339;DHT22;27993;45.392;10.918;2023-04-01T07:59:49;20.00;99.90
42339;DHT22;27993;45.392;10.918;2023-04-01T08:05:33;20.00;99.90
42339;DHT22;27993;45.392;10.918;2023-04-01T08:08:19;19.20;99.90
42339;DHT22;27993;45.392;10.918;2023-04-01T08:11:06;19.20;99.90
42339;DHT22;27993;45.392;10.918;2023-04-01T08:20:27;21.50;99.90
42339;DHT22;27993;45.392;10.918;2023-04-01T08:23:19;20.80;99.90
42339;DHT22;27993;45.392;10.918;2023-04-01T08:25:59;20.50;99.90
42339;DHT22;27993;45.392;10.918;2023-04-01T08:28:54;20.20;99.90
42339;DHT22;27993;45.392;10.918;2023-04-01T08:34:38;20.20;99.90
42339;DHT22;27993;45.392;10.918;2023-04-01T08:37:17;20.60;99.90
42339;DHT22;27993;45.392;10.918;2023-04-01T08:43:12;20.60;99.90
42339;DHT22;27993;45.392;10.918;2023-04-01T08:46:03;21.70;99.90
42339;DHT22;27993;45.392;10.918;2023-04-01T09:08:48;21.50;99.90
42339;DHT22;27993;45.392;10.918;2023-04-01T09:13:48;22.80;99.90
42339;DHT22;27993;45.392;10.918;2023-04-01T09:19:36;23.40;99.90
42339;DHT22;27993;45.392;10.918;2023-04-01T09:30:32;27.40;91.70
42339;DHT22;27993;45.392;10.918;2023-04-01T09:35:47;28.10;85.60
42339;DHT22;27993;45.392;10.918;2023-04-01T09:38:30;27.60;86.40
42339;DHT22;27993;45.392;10.918;2023-04-01T09:52:53;29.10;78.20
42339;DHT22;27993;45.392;10.918;2023-04-01T10:07:31;29.50;76.20
42339;DHT22;27993;45.392;10.918;2023-04-01T10:30:38;30.60;63.70
42339;DHT22;27993;45.392;10.918;2023-04-01T10:36:25;30.30;64.00
42339;DHT22;27993;45.392;10.918;2023-04-01T10:42:00;30.60;62.20
42339;DHT22;27993;45.392;10.918;2023-04-01T10:50:40;29.60;64.00
42339;DHT22;27993;45.392;10.918;2023-04-01T11:08:38;29.10;63.80
42339;DHT22;27993;45.392;10.918;2023-04-01T11:20:10;25.40;62.90
42339;DHT22;27993;45.392;10.918;2023-04-01T11:37:16;24.80;66.30
42339;DHT22;27993;45.392;10.918;2023-04-01T11:40:03;24.40;67.30
42339;DHT22;27993;45.392;10.918;2023-04-01T11:46:00;24.80;69.40
42339;DHT22;27993;45.392;10.918;2023-04-01T11:48:34;24.40;68.70
42339;DHT22;27993;45.392;10.918;2023-04-01T11:57:17;23.60;69.70
42339;DHT22;27993;45.392;10.918;2023-04-01T12:05:58;23.10;67.10
42339;DHT22;27993;45.392;10.918;2023-04-01T12:14:32;22.70;67.60
42339;DHT22;27993;45.392;10.918;2023-04-01T12:20:24;22.80;66.60
42339;DHT22;27993;45.392;10.918;2023-04-01T12:31:59;22.70;66.50
42339;DHT22;27993;45.392;10.918;2023-04-01T12:38:03;22.70;65.20
42339;DHT22;27993;45.392;10.918;2023-04-01T12:52:39;22.40;63.80
42339;DHT22;27993;45.392;10.918;2023-04-01T12:58:22;22.40;66.70
42339;DHT22;27993;45.392;10.918;2023-04-01T13:14:48;22.70;65.20
42339;DHT22;27993;45.392;10.918;2023-04-01T13:17:58;22.60;67.60
42339;DHT22;27993;45.392;10.918;2023-04-01T13:29:31;22.70;67.20
42339;DHT22;27993;45.392;10.918;2023-04-01T13:32:41;22.50;68.30
42339;DHT22;27993;45.392;10.918;2023-04-01T13:35:26;22.50;65.30
42339;DHT22;27993;45.392;10.918;2023-04-01T13:40:54;22.40;60.10
42339;DHT22;27993;45.392;10.918;2023-04-01T13:43:42;22.20;60.10
42339;DHT22;27993;45.392;10.918;2023-04-01T14:01:10;22.50;63.00
42339;DHT22;27993;45.392;10.918;2023-04-01T14:10:34;22.40;58.30
42339;DHT22;27993;45.392;10.918;2023-04-01T14:15:54;22.50;58.00
42339;DHT22;27993;45.392;10.918;2023-04-01T14:21:35;22.40;58.20
42339;DHT22;27993;45.392;10.918;2023-04-01T14:24:32;22.40;56.80
42339;DHT22;27993;45.392;10.918;2023-04-01T14:27:21;22.50;56.30
42339;DHT22;27993;45.392;10.918;2023-04-01T14:32:58;22.40;55.50
42339;DHT22;27993;45.392;10.918;2023-04-01T14:50:16;22.50;58.10
42339;DHT22;27993;45.392;10.918;2023-04-01T14:53:11;22.50;56.40
42339;DHT22;27993;45.392;10.918;2023-04-01T14:58:14;22.50;54.60
42339;DHT22;27993;45.392;10.918;2023-04-01T15:06:28;22.50;54.90
42339;DHT22;27993;45.392;10.918;2023-04-01T15:14:42;22.50;54.00
42339;DHT22;27993;45.392;10.918;2023-04-01T15:20:50;22.50;53.40
42339;DHT22;27993;45.392;10.918;2023-04-01T15:32:21;22.10;56.90
42339;DHT22;27993;45.392;10.918;2023-04-01T15:38:20;22.30;55.50
42339;DHT22;27993;45.392;10.918;2023-04-01T15:43:49;22.10;60.10
42339;DHT22;27993;45.392;10.918;2023-04-01T15:46:44;21.90;58.60
42339;DHT22;27993;45.392;10.918;2023-04-01T15:49:41;21.50;60.00
42339;DHT22;27993;45.392;10.918;2023-04-01T15:52:24;21.40;64.70
42339;DHT22;27993;45.392;10.918;2023-04-01T16:01:14;21.10;62.40
42339;DHT22;27993;45.392;10.918;2023-04-01T16:09:43;21.00;61.70
42339;DHT22;27993;45.392;10.918;2023-04-01T16:12:36;21.00;62.90
42339;DHT22;27993;45.392;10.918;2023-04-01T16:15:24;20.70;61.30
42339;DHT22;27993;45.392;10.918;2023-04-01T16:18:19;20.50;62.70
42339;DHT22;27993;45.392;10.918;2023-04-01T16:23:40;20.70;62.10
42339;DHT22;27993;45.392;10.918;2023-04-01T16:29:05;20.60;61.60
42339;DHT22;27993;45.392;10.918;2023-04-01T16:31:58;20.40;61.30
42339;DHT22;27993;45.392;10.918;2023-04-01T16:34:38;20.20;61.90
42339;DHT22;27993;45.392;10.918;2023-04-01T16:37:15;20.10;60.40
42339;DHT22;27993;45.392;10.918;2023-04-01T16:40:16;20.00;63.70
42339;DHT22;27993;45.392;10.918;2023-04-01T16:42:57;20.00;58.00
42339;DHT22;27993;45.392;10.918;2023-04-01T16:48:45;20.00;59.70
42339;DHT22;27993;45.392;10.918;2023-04-01T16:51:18;19.90;60.60
42339;DHT22;27993;45.392;10.918;2023-04-01T16:54:02;19.80;60.70
42339;DHT22;27993;45.392;10.918;2023-04-01T16:56:40;19.80;60.50
42339;DHT22;27993;45.392;10.918;2023-04-01T16:59:27;19.80;61.70
42339;DHT22;27993;45.392;10.918;2023-04-01T17:04:45;19.70;60.10
42339;DHT22;27993;45.392;10.918;2023-04-01T17:16:01;19.80;58.90
42339;DHT22;27993;45.392;10.918;2023-04-01T17:21:07;19.80;59.30
42339;DHT22;27993;45.392;10.918;2023-04-01T17:23:52;19.70;57.20
42339;DHT22;27993;45.392;10.918;2023-04-01T17:45:44;18.80;65.20
42339;DHT22;27993;45.392;10.918;2023-04-01T17:53:55;18.60;67.30
42339;DHT22;27993;45.392;10.918;2023-04-01T17:56:47;18.50;68.20
42339;DHT22;27993;45.392;10.918;2023-04-01T17:59:37;18.50;68.70
42339;DHT22;27993;45.392;10.918;2023-04-01T18:10:31;18.40;70.50
42339;DHT22;27993;45.392;10.918;2023-04-01T18:13:40;18.30;72.30
42339;DHT22;27993;45.392;10.918;2023-04-01T18:19:24;18.20;72.40
42339;DHT22;27993;45.392;10.918;2023-04-01T18:25:21;18.20;73.00
42339;DHT22;27993;45.392;10.918;2023-04-01T18:36:44;17.70;76.20
42339;DHT22;27993;45.392;10.918;2023-04-01T18:39:22;17.70;75.90
42339;DHT22;27993;45.392;10.918;2023-04-01T18:45:27;17.60;76.00
42339;DHT22;27993;45.392;10.918;2023-04-01T18:48:11;17.30;76.70
42339;DHT22;27993;45.392;10.918;2023-04-01T18:50:58;17.20;77.50
42339;DHT22;27993;45.392;10.918;2023-04-01T18:53:57;17.20;77.60
42339;DHT22;27993;45.392;10.918;2023-04-01T18:56:39;16.90;78.70
42339;DHT22;27993;45.392;10.918;2023-04-01T18:59:20;16.60;79.60
42339;DHT22;27993;45.392;10.918;2023-04-01T19:04:37;16.20;81.60
42339;DHT22;27993;45.392;10.918;2023-04-01T19:10:33;16.00;83.30
42339;DHT22;27993;45.392;10.918;2023-04-01T19:13:21;16.10;83.30
42339;DHT22;27993;45.392;10.918;2023-04-01T19:21:56;15.80;85.60
42339;DHT22;27993;45.392;10.918;2023-04-01T19:30:23;15.40;88.10
42339;DHT22;27993;45.392;10.918;2023-04-01T19:33:19;15.40;88.90
42339;DHT22;27993;45.392;10.918;2023-04-01T19:36:04;15.70;88.50
42339;DHT22;27993;45.392;10.918;2023-04-01T19:38:41;15.90;88.60
42339;DHT22;27993;45.392;10.918;2023-04-01T19:50:06;16.00;89.40
42339;DHT22;27993;45.392;10.918;2023-04-01T19:52:47;15.80;90.40
42339;DHT22;27993;45.392;10.918;2023-04-01T19:55:50;15.60;91.70
42339;DHT22;27993;45.392;10.918;2023-04-01T20:01:04;15.40;95.10
42339;DHT22;27993;45.392;10.918;2023-04-01T20:03:48;15.30;96.80
42339;DHT22;27993;45.392;10.918;2023-04-01T20:09:47;15.20;99.90
42339;DHT22;27993;45.392;10.918;2023-04-01T20:17:58;14.50;99.90
42339;DHT22;27993;45.392;10.918;2023-04-01T20:20:31;14.50;99.90
42339;DHT22;27993;45.392;10.918;2023-04-01T20:23:38;14.40;99.90
42339;DHT22;27993;45.392;10.918;2023-04-01T20:26:12;14.60;99.90
42339;DHT22;27993;45.392;10.918;2023-04-01T20:31:43;14.80;99.90
42339;DHT22;27993;45.392;10.918;2023-04-01T20:37:58;14.70;99.90
42339;DHT22;27993;45.392;10.918;2023-04-01T20:40:26;14.80;99.90
42339;DHT22;27993;45.392;10.918;2023-04-01T20:46:13;14.70;99.90
42339;DHT22;27993;45.392;10.918;2023-04-01T20:49:20;14.60;99.90
42339;DHT22;27993;45.392;10.918;2023-04-01T21:11:46;14.30;99.90
42339;DHT22;27993;45.392;10.918;2023-04-01T21:15:02;14.40;99.90
42339;DHT22;27993;45.392;10.918;2023-04-01T21:31:18;14.40;99.90
42339;DHT22;27993;45.392;10.918;2023-04-01T21:37:07;13.90;99.90
42339;DHT22;27993;45.392;10.918;2023-04-01T21:50:38;14.10;99.90
42339;DHT22;27993;45.392;10.918;2023-04-01T21:56:25;14.10;99.90
42339;DHT22;27993;45.392;10.918;2023-04-01T22:07:55;14.30;99.90
42339;DHT22;27993;45.392;10.918;2023-04-01T22:10:44;14.30;99.90
42339;DHT22;27993;45.392;10.918;2023-04-01T22:13:43;14.40;99.90
42339;DHT22;27993;45.392;10.918;2023-04-01T22:16:25;14.40;99.90
42339;DHT22;27993;45.392;10.918;2023-04-01T22:22:01;14.30;99.90
42339;DHT22;27993;45.392;10.918;2023-04-01T22:24:41;14.40;99.90
42339;DHT22;27993;45.392;10.918;2023-04-01T22:35:56;14.60;99.90
42339;DHT22;27993;45.392;10.918;2023-04-01T22:38:44;14.50;99.90
42339;DHT22;27993;45.392;10.918;2023-04-01T22:50:02;13.80;99.90
42339;DHT22;27993;45.392;10.918;2023-04-01T22:52:38;13.70;99.90
42339;DHT22;27993;45.392;10.918;2023-04-01T22:55:19;13.50;99.90
42339;DHT22;27993;45.392;10.918;2023-04-01T22:57:57;13.40;99.90
42339;DHT22;27993;45.392;10.918;2023-04-01T23:03:32;13.20;99.90
42339;DHT22;27993;45.392;10.918;2023-04-01T23:06:04;13.00;99.90
42339;DHT22;27993;45.392;10.918;2023-04-01T23:08:55;12.90;99.90
42339;DHT22;27993;45.392;10.918;2023-04-01T23:11:37;12.90;99.90
42339;DHT22;27993;45.392;10.918;2023-04-01T23:19:54;12.90;99.90
42339;DHT22;27993;45.392;10.918;2023-04-01T23:22:43;12.90;99.90
42339;DHT22;27993;45.392;10.918;2023-04-01T23:28:30;12.90;99.90
42339;DHT22;27993;45.392;10.918;2023-04-01T23:31:02;12.90;99.90
42339;DHT22;27993;45.392;10.918;2023-04-01T23:33:33;12.80;99.90
42339;DHT22;27993;45.392;10.918;2023-04-01T23:36:12;12.80;99.90
42339;DHT22;27993;45.392;10.918;2023-04-01T23:38:48;12.80;99.90
42339;DHT22;27993;45.392;10.918;2023-04-01T23:41:28;12.80;99.90
42339;DHT22;27993;45.392;10.918;2023-04-01T23:44:10;12.70;99.90
42339;DHT22;27993;45.392;10.918;2023-04-01T23:46:43;12.80;99.90
42339;DHT22;27993;45.392;10.918;2023-04-01T23:49:30;12.70;99.90
42339;DHT22;27993;45.392;10.918;2023-04-01T23:52:25;12.70;99.90
42339;DHT22;27993;45.392;10.918;2023-04-01T23:54:59;12.70;99.90
42339;DHT22;27993;45.392;10.918;2023-04-01T23:57:35;12.70;99.90
